sensor_id;sensor_type;location;lat;lon;timestamp;P1;durP1;ratioP1;P2;durP2;ratioP2
13483;SDS011;6814;57.786;12.080;2024-03-02T00:01:17;68.57;;;31.17;;
13483;SDS011;6814;57.786;12.080;2024-03-02T00:03:44;80.57;;;31.77;;
13483;SDS011;6814;57.786;12.080;2024-03-02T00:06:10;69.13;;;30.83;;
13483;SDS011;6814;57.786;12.080;2024-03-02T00:08:37;70.37;;;31.87;;
13483;SDS011;6814;57.786;12.080;2024-03-02T00:11:03;72.30;;;32.10;;
13483;SDS011;6814;57.786;12.080;2024-03-02T00:13:30;73.60;;;31.13;;
13483;SDS011;6814;57.786;12.080;2024-03-02T00:16:00;75.57;;;33.37;;
13483;SDS011;6814;57.786;12.080;2024-03-02T00:18:27;80.00;;;33.47;;
13483;SDS011;6814;57.786;12.080;2024-03-02T00:20:56;73.33;;;31.93;;
13483;SDS011;6814;57.786;12.080;2024-03-02T00:23:23;68.90;;;32.07;;
13483;SDS011;6814;57.786;12.080;2024-03-02T00:25:51;70.93;;;31.07;;
13483;SDS011;6814;57.786;12.080;2024-03-02T00:28:19;77.17;;;32.03;;
13483;SDS011;6814;57.786;12.080;2024-03-02T00:33:33;70.37;;;30.73;;
13483;SDS011;6814;57.786;12.080;2024-03-02T00:36:00;71.70;;;31.93;;
13483;SDS011;6814;57.786;12.080;2024-03-02T00:38:28;75.20;;;32.20;;
13483;SDS011;6814;57.786;12.080;2024-03-02T00:40:55;74.33;;;31.47;;
13483;SDS011;6814;57.786;12.080;2024-03-02T00:43:39;67.77;;;30.87;;
13483;SDS011;6814;57.786;12.080;2024-03-02T00:46:07;74.97;;;30.87;;
13483;SDS011;6814;57.786;12.080;2024-03-02T00:48:35;75.73;;;32.20;;
13483;SDS011;6814;57.786;12.080;2024-03-02T00:51:02;79.90;;;32.37;;
13483;SDS011;6814;57.786;12.080;2024-03-02T00:53:29;79.27;;;32.43;;
13483;SDS011;6814;57.786;12.080;2024-03-02T00:55:57;79.97;;;32.37;;
13483;SDS011;6814;57.786;12.080;2024-03-02T00:58:24;83.00;;;33.37;;
13483;SDS011;6814;57.786;12.080;2024-03-02T01:00:51;84.63;;;33.23;;
13483;SDS011;6814;57.786;12.080;2024-03-02T01:03:17;71.10;;;32.47;;
13483;SDS011;6814;57.786;12.080;2024-03-02T01:05:46;84.83;;;34.00;;
13483;SDS011;6814;57.786;12.080;2024-03-02T01:08:13;76.90;;;32.13;;
13483;SDS011;6814;57.786;12.080;2024-03-02T01:10:40;77.40;;;32.33;;
13483;SDS011;6814;57.786;12.080;2024-03-02T01:13:06;83.73;;;33.57;;
13483;SDS011;6814;57.786;12.080;2024-03-02T01:15:33;91.73;;;35.17;;
13483;SDS011;6814;57.786;12.080;2024-03-02T01:18:00;76.53;;;34.60;;
13483;SDS011;6814;57.786;12.080;2024-03-02T01:20:26;73.17;;;33.43;;
13483;SDS011;6814;57.786;12.080;2024-03-02T01:22:55;77.30;;;32.33;;
13483;SDS011;6814;57.786;12.080;2024-03-02T01:25:21;79.77;;;33.30;;
13483;SDS011;6814;57.786;12.080;2024-03-02T01:27:48;77.73;;;32.67;;
13483;SDS011;6814;57.786;12.080;2024-03-02T01:30:15;84.70;;;32.87;;
13483;SDS011;6814;57.786;12.080;2024-03-02T01:32:41;90.33;;;36.13;;
13483;SDS011;6814;57.786;12.080;2024-03-02T01:35:08;89.57;;;35.33;;
13483;SDS011;6814;57.786;12.080;2024-03-02T01:37:34;91.73;;;36.60;;
13483;SDS011;6814;57.786;12.080;2024-03-02T01:40:03;84.37;;;35.17;;
13483;SDS011;6814;57.786;12.080;2024-03-02T01:42:34;85.73;;;34.93;;
13483;SDS011;6814;57.786;12.080;2024-03-02T01:45:00;95.17;;;34.87;;
13483;SDS011;6814;57.786;12.080;2024-03-02T01:47:27;84.03;;;32.90;;
13483;SDS011;6814;57.786;12.080;2024-03-02T01:49:54;80.67;;;33.33;;
13483;SDS011;6814;57.786;12.080;2024-03-02T01:52:20;76.77;;;32.93;;
13483;SDS011;6814;57.786;12.080;2024-03-02T01:54:47;83.23;;;33.70;;
13483;SDS011;6814;57.786;12.080;2024-03-02T01:57:15;86.67;;;34.53;;
13483;SDS011;6814;57.786;12.080;2024-03-02T01:59:41;86.43;;;34.67;;
13483;SDS011;6814;57.786;12.080;2024-03-02T02:02:08;80.60;;;31.67;;
13483;SDS011;6814;57.786;12.080;2024-03-02T02:04:35;79.70;;;32.60;;
13483;SDS011;6814;57.786;12.080;2024-03-02T02:07:01;81.87;;;32.73;;
13483;SDS011;6814;57.786;12.080;2024-03-02T02:09:28;77.17;;;32.60;;
13483;SDS011;6814;57.786;12.080;2024-03-02T02:11:55;78.27;;;32.40;;
13483;SDS011;6814;57.786;12.080;2024-03-02T02:14:23;81.80;;;32.67;;
13483;SDS011;6814;57.786;12.080;2024-03-02T02:16:49;77.87;;;30.87;;
13483;SDS011;6814;57.786;12.080;2024-03-02T02:19:17;73.77;;;31.37;;
13483;SDS011;6814;57.786;12.080;2024-03-02T02:21:45;85.60;;;32.43;;
13483;SDS011;6814;57.786;12.080;2024-03-02T02:24:12;77.00;;;30.93;;
13483;SDS011;6814;57.786;12.080;2024-03-02T02:26:38;82.23;;;33.03;;
13483;SDS011;6814;57.786;12.080;2024-03-02T02:29:05;73.93;;;30.77;;
13483;SDS011;6814;57.786;12.080;2024-03-02T02:31:36;74.67;;;32.80;;
13483;SDS011;6814;57.786;12.080;2024-03-02T02:34:03;77.33;;;31.70;;
13483;SDS011;6814;57.786;12.080;2024-03-02T02:36:29;83.53;;;32.33;;
13483;SDS011;6814;57.786;12.080;2024-03-02T02:38:57;85.67;;;32.13;;
13483;SDS011;6814;57.786;12.080;2024-03-02T02:41:25;86.80;;;31.90;;
13483;SDS011;6814;57.786;12.080;2024-03-02T02:43:52;79.73;;;33.40;;
13483;SDS011;6814;57.786;12.080;2024-03-02T02:46:18;79.03;;;32.87;;
13483;SDS011;6814;57.786;12.080;2024-03-02T02:48:45;79.27;;;32.47;;
13483;SDS011;6814;57.786;12.080;2024-03-02T02:51:11;84.77;;;33.60;;
13483;SDS011;6814;57.786;12.080;2024-03-02T02:53:38;84.57;;;32.43;;
13483;SDS011;6814;57.786;12.080;2024-03-02T02:56:07;91.27;;;33.67;;
13483;SDS011;6814;57.786;12.080;2024-03-02T02:58:33;96.33;;;33.30;;
13483;SDS011;6814;57.786;12.080;2024-03-02T03:01:00;81.20;;;32.13;;
13483;SDS011;6814;57.786;12.080;2024-03-02T03:03:27;76.23;;;29.73;;
13483;SDS011;6814;57.786;12.080;2024-03-02T03:05:53;70.47;;;29.77;;
13483;SDS011;6814;57.786;12.080;2024-03-02T03:08:20;77.37;;;30.10;;
13483;SDS011;6814;57.786;12.080;2024-03-02T03:10:48;77.47;;;29.53;;
13483;SDS011;6814;57.786;12.080;2024-03-02T03:13:16;78.80;;;30.70;;
13483;SDS011;6814;57.786;12.080;2024-03-02T03:15:43;86.27;;;30.83;;
13483;SDS011;6814;57.786;12.080;2024-03-02T03:18:10;74.23;;;30.47;;
13483;SDS011;6814;57.786;12.080;2024-03-02T03:20:36;67.83;;;29.70;;
13483;SDS011;6814;57.786;12.080;2024-03-02T03:23:03;72.40;;;29.40;;
13483;SDS011;6814;57.786;12.080;2024-03-02T03:25:30;79.13;;;29.07;;
13483;SDS011;6814;57.786;12.080;2024-03-02T03:27:57;76.27;;;28.47;;
13483;SDS011;6814;57.786;12.080;2024-03-02T03:30:25;73.27;;;28.37;;
13483;SDS011;6814;57.786;12.080;2024-03-02T03:32:51;76.23;;;30.20;;
13483;SDS011;6814;57.786;12.080;2024-03-02T03:35:18;85.20;;;29.63;;
13483;SDS011;6814;57.786;12.080;2024-03-02T03:37:44;81.50;;;29.57;;
13483;SDS011;6814;57.786;12.080;2024-03-02T03:40:11;78.13;;;29.40;;
13483;SDS011;6814;57.786;12.080;2024-03-02T03:42:39;69.33;;;28.10;;
13483;SDS011;6814;57.786;12.080;2024-03-02T03:45:06;79.33;;;29.57;;
13483;SDS011;6814;57.786;12.080;2024-03-02T03:47:34;83.57;;;30.80;;
13483;SDS011;6814;57.786;12.080;2024-03-02T03:50:01;72.03;;;27.23;;
13483;SDS011;6814;57.786;12.080;2024-03-02T03:52:29;68.93;;;27.37;;
13483;SDS011;6814;57.786;12.080;2024-03-02T03:54:56;69.90;;;28.63;;
13483;SDS011;6814;57.786;12.080;2024-03-02T03:57:22;79.37;;;28.30;;
13483;SDS011;6814;57.786;12.080;2024-03-02T03:59:49;75.37;;;27.77;;
13483;SDS011;6814;57.786;12.080;2024-03-02T04:02:15;70.47;;;26.63;;
13483;SDS011;6814;57.786;12.080;2024-03-02T04:04:44;79.47;;;28.17;;
13483;SDS011;6814;57.786;12.080;2024-03-02T04:07:11;80.17;;;29.20;;
13483;SDS011;6814;57.786;12.080;2024-03-02T04:09:37;81.70;;;28.37;;
13483;SDS011;6814;57.786;12.080;2024-03-02T04:12:04;81.37;;;28.37;;
13483;SDS011;6814;57.786;12.080;2024-03-02T04:14:31;79.40;;;28.93;;
13483;SDS011;6814;57.786;12.080;2024-03-02T04:16:57;72.97;;;27.33;;
13483;SDS011;6814;57.786;12.080;2024-03-02T04:19:24;64.67;;;28.13;;
13483;SDS011;6814;57.786;12.080;2024-03-02T04:21:52;78.80;;;28.50;;
13483;SDS011;6814;57.786;12.080;2024-03-02T04:24:18;76.60;;;27.20;;
13483;SDS011;6814;57.786;12.080;2024-03-02T04:26:45;65.03;;;25.47;;
13483;SDS011;6814;57.786;12.080;2024-03-02T04:29:11;74.03;;;27.60;;
13483;SDS011;6814;57.786;12.080;2024-03-02T04:31:38;66.23;;;27.10;;
13483;SDS011;6814;57.786;12.080;2024-03-02T04:34:05;63.70;;;25.73;;
13483;SDS011;6814;57.786;12.080;2024-03-02T04:36:31;72.23;;;27.63;;
13483;SDS011;6814;57.786;12.080;2024-03-02T04:38:59;70.57;;;27.27;;
13483;SDS011;6814;57.786;12.080;2024-03-02T04:41:26;70.10;;;27.33;;
13483;SDS011;6814;57.786;12.080;2024-03-02T04:43:52;63.23;;;26.83;;
13483;SDS011;6814;57.786;12.080;2024-03-02T04:46:19;66.57;;;25.67;;
13483;SDS011;6814;57.786;12.080;2024-03-02T04:48:45;72.37;;;27.03;;
13483;SDS011;6814;57.786;12.080;2024-03-02T04:51:13;72.43;;;27.70;;
13483;SDS011;6814;57.786;12.080;2024-03-02T04:53:40;67.13;;;26.93;;
13483;SDS011;6814;57.786;12.080;2024-03-02T04:56:08;72.40;;;26.77;;
13483;SDS011;6814;57.786;12.080;2024-03-02T04:59:04;72.60;;;27.80;;
13483;SDS011;6814;57.786;12.080;2024-03-02T05:01:31;62.27;;;25.77;;
13483;SDS011;6814;57.786;12.080;2024-03-02T05:03:57;65.17;;;26.13;;
13483;SDS011;6814;57.786;12.080;2024-03-02T05:06:24;64.47;;;26.90;;
13483;SDS011;6814;57.786;12.080;2024-03-02T05:08:51;67.80;;;25.43;;
13483;SDS011;6814;57.786;12.080;2024-03-02T05:11:19;61.20;;;25.33;;
13483;SDS011;6814;57.786;12.080;2024-03-02T05:14:11;65.50;;;25.97;;
13483;SDS011;6814;57.786;12.080;2024-03-02T05:16:38;65.00;;;25.77;;
13483;SDS011;6814;57.786;12.080;2024-03-02T05:19:05;61.40;;;25.97;;
13483;SDS011;6814;57.786;12.080;2024-03-02T05:21:32;64.60;;;26.60;;
13483;SDS011;6814;57.786;12.080;2024-03-02T05:23:59;66.30;;;26.60;;
13483;SDS011;6814;57.786;12.080;2024-03-02T05:26:27;57.03;;;24.63;;
13483;SDS011;6814;57.786;12.080;2024-03-02T05:28:54;59.50;;;25.43;;
13483;SDS011;6814;57.786;12.080;2024-03-02T05:31:20;60.43;;;26.23;;
13483;SDS011;6814;57.786;12.080;2024-03-02T05:33:47;61.67;;;24.93;;
13483;SDS011;6814;57.786;12.080;2024-03-02T05:36:13;62.03;;;25.13;;
13483;SDS011;6814;57.786;12.080;2024-03-02T05:38:40;55.47;;;23.57;;
13483;SDS011;6814;57.786;12.080;2024-03-02T05:41:06;55.83;;;23.47;;
13483;SDS011;6814;57.786;12.080;2024-03-02T05:43:34;63.00;;;25.17;;
13483;SDS011;6814;57.786;12.080;2024-03-02T05:46:01;59.83;;;25.03;;
13483;SDS011;6814;57.786;12.080;2024-03-02T05:48:28;60.23;;;25.00;;
13483;SDS011;6814;57.786;12.080;2024-03-02T05:50:54;69.30;;;24.63;;
13483;SDS011;6814;57.786;12.080;2024-03-02T05:53:21;59.80;;;24.97;;
13483;SDS011;6814;57.786;12.080;2024-03-02T05:55:48;65.87;;;26.47;;
13483;SDS011;6814;57.786;12.080;2024-03-02T05:58:18;61.10;;;24.90;;
13483;SDS011;6814;57.786;12.080;2024-03-02T06:00:57;63.70;;;24.37;;
13483;SDS011;6814;57.786;12.080;2024-03-02T06:03:24;62.80;;;24.40;;
13483;SDS011;6814;57.786;12.080;2024-03-02T06:05:50;59.27;;;26.53;;
13483;SDS011;6814;57.786;12.080;2024-03-02T06:08:17;60.03;;;26.23;;
13483;SDS011;6814;57.786;12.080;2024-03-02T06:10:43;63.80;;;25.87;;
13483;SDS011;6814;57.786;12.080;2024-03-02T06:13:11;62.07;;;27.60;;
13483;SDS011;6814;57.786;12.080;2024-03-02T06:15:38;68.40;;;26.73;;
13483;SDS011;6814;57.786;12.080;2024-03-02T06:18:06;67.33;;;27.00;;
13483;SDS011;6814;57.786;12.080;2024-03-02T06:20:33;71.60;;;27.07;;
13483;SDS011;6814;57.786;12.080;2024-03-02T06:23:00;71.17;;;27.40;;
13483;SDS011;6814;57.786;12.080;2024-03-02T06:25:27;65.53;;;26.30;;
13483;SDS011;6814;57.786;12.080;2024-03-02T06:27:53;71.53;;;27.10;;
13483;SDS011;6814;57.786;12.080;2024-03-02T06:30:20;69.80;;;27.37;;
13483;SDS011;6814;57.786;12.080;2024-03-02T06:32:46;67.50;;;26.87;;
13483;SDS011;6814;57.786;12.080;2024-03-02T06:35:14;63.50;;;24.90;;
13483;SDS011;6814;57.786;12.080;2024-03-02T06:37:41;60.33;;;25.97;;
13483;SDS011;6814;57.786;12.080;2024-03-02T06:40:08;67.23;;;26.93;;
13483;SDS011;6814;57.786;12.080;2024-03-02T06:42:35;71.73;;;27.73;;
13483;SDS011;6814;57.786;12.080;2024-03-02T06:45:01;65.37;;;26.47;;
13483;SDS011;6814;57.786;12.080;2024-03-02T06:47:28;67.87;;;26.43;;
13483;SDS011;6814;57.786;12.080;2024-03-02T06:49:55;71.80;;;28.43;;
13483;SDS011;6814;57.786;12.080;2024-03-02T06:52:23;72.93;;;28.50;;
13483;SDS011;6814;57.786;12.080;2024-03-02T06:54:50;69.67;;;27.87;;
13483;SDS011;6814;57.786;12.080;2024-03-02T06:57:17;74.20;;;28.43;;
13483;SDS011;6814;57.786;12.080;2024-03-02T06:59:44;78.40;;;28.57;;
13483;SDS011;6814;57.786;12.080;2024-03-02T07:02:11;83.17;;;29.73;;
13483;SDS011;6814;57.786;12.080;2024-03-02T07:04:38;83.13;;;29.97;;
13483;SDS011;6814;57.786;12.080;2024-03-02T07:07:05;79.73;;;30.70;;
13483;SDS011;6814;57.786;12.080;2024-03-02T07:09:33;89.07;;;29.63;;
13483;SDS011;6814;57.786;12.080;2024-03-02T07:11:59;92.77;;;31.53;;
13483;SDS011;6814;57.786;12.080;2024-03-02T07:14:26;104.50;;;30.07;;
13483;SDS011;6814;57.786;12.080;2024-03-02T07:17:12;88.73;;;29.00;;
13483;SDS011;6814;57.786;12.080;2024-03-02T07:19:39;99.40;;;31.67;;
13483;SDS011;6814;57.786;12.080;2024-03-02T07:22:06;105.27;;;29.57;;
13483;SDS011;6814;57.786;12.080;2024-03-02T07:24:36;88.73;;;29.17;;
13483;SDS011;6814;57.786;12.080;2024-03-02T07:27:05;100.43;;;30.27;;
13483;SDS011;6814;57.786;12.080;2024-03-02T07:29:31;149.00;;;33.60;;
13483;SDS011;6814;57.786;12.080;2024-03-02T07:31:58;102.30;;;30.27;;
13483;SDS011;6814;57.786;12.080;2024-03-02T07:34:25;114.70;;;31.80;;
13483;SDS011;6814;57.786;12.080;2024-03-02T07:36:51;126.70;;;31.33;;
13483;SDS011;6814;57.786;12.080;2024-03-02T07:39:18;116.37;;;31.20;;
13483;SDS011;6814;57.786;12.080;2024-03-02T07:41:46;130.03;;;33.80;;
13483;SDS011;6814;57.786;12.080;2024-03-02T07:44:12;174.00;;;34.17;;
13483;SDS011;6814;57.786;12.080;2024-03-02T07:46:39;165.30;;;32.00;;
13483;SDS011;6814;57.786;12.080;2024-03-02T07:49:06;155.30;;;35.07;;
13483;SDS011;6814;57.786;12.080;2024-03-02T07:51:33;167.97;;;34.17;;
13483;SDS011;6814;57.786;12.080;2024-03-02T07:53:59;144.27;;;33.10;;
13483;SDS011;6814;57.786;12.080;2024-03-02T07:56:26;176.33;;;34.30;;
13483;SDS011;6814;57.786;12.080;2024-03-02T07:58:54;151.30;;;35.53;;
13483;SDS011;6814;57.786;12.080;2024-03-02T08:01:22;160.13;;;34.50;;
13483;SDS011;6814;57.786;12.080;2024-03-02T08:03:49;118.27;;;35.17;;
13483;SDS011;6814;57.786;12.080;2024-03-02T08:06:16;136.17;;;35.33;;
13483;SDS011;6814;57.786;12.080;2024-03-02T08:08:42;153.30;;;35.07;;
13483;SDS011;6814;57.786;12.080;2024-03-02T08:11:09;124.07;;;35.00;;
13483;SDS011;6814;57.786;12.080;2024-03-02T08:13:35;112.40;;;34.40;;
13483;SDS011;6814;57.786;12.080;2024-03-02T08:16:04;116.37;;;35.13;;
13483;SDS011;6814;57.786;12.080;2024-03-02T08:18:32;112.87;;;35.90;;
13483;SDS011;6814;57.786;12.080;2024-03-02T08:20:59;102.00;;;34.53;;
13483;SDS011;6814;57.786;12.080;2024-03-02T08:23:26;107.53;;;33.57;;
13483;SDS011;6814;57.786;12.080;2024-03-02T08:25:52;97.57;;;34.67;;
13483;SDS011;6814;57.786;12.080;2024-03-02T08:28:19;108.70;;;35.30;;
13483;SDS011;6814;57.786;12.080;2024-03-02T08:30:45;97.53;;;35.57;;
13483;SDS011;6814;57.786;12.080;2024-03-02T08:33:13;103.97;;;35.77;;
13483;SDS011;6814;57.786;12.080;2024-03-02T08:35:40;91.60;;;36.20;;
13483;SDS011;6814;57.786;12.080;2024-03-02T08:38:07;92.60;;;35.33;;
13483;SDS011;6814;57.786;12.080;2024-03-02T08:40:33;94.47;;;36.77;;
13483;SDS011;6814;57.786;12.080;2024-03-02T08:43:00;92.90;;;36.27;;
13483;SDS011;6814;57.786;12.080;2024-03-02T08:45:27;93.40;;;35.97;;
13483;SDS011;6814;57.786;12.080;2024-03-02T08:47:54;96.03;;;36.73;;
13483;SDS011;6814;57.786;12.080;2024-03-02T08:50:22;89.00;;;36.27;;
13483;SDS011;6814;57.786;12.080;2024-03-02T08:52:49;94.17;;;37.77;;
13483;SDS011;6814;57.786;12.080;2024-03-02T08:55:15;86.23;;;37.17;;
13483;SDS011;6814;57.786;12.080;2024-03-02T08:57:42;92.53;;;36.57;;
13483;SDS011;6814;57.786;12.080;2024-03-02T09:00:09;90.03;;;37.53;;
13483;SDS011;6814;57.786;12.080;2024-03-02T09:02:36;94.87;;;38.50;;
13483;SDS011;6814;57.786;12.080;2024-03-02T09:05:02;85.67;;;36.73;;
13483;SDS011;6814;57.786;12.080;2024-03-02T09:07:31;87.63;;;36.23;;
13483;SDS011;6814;57.786;12.080;2024-03-02T09:09:57;84.77;;;38.23;;
13483;SDS011;6814;57.786;12.080;2024-03-02T09:12:24;87.10;;;37.40;;
13483;SDS011;6814;57.786;12.080;2024-03-02T09:14:50;83.57;;;38.27;;
13483;SDS011;6814;57.786;12.080;2024-03-02T09:17:17;83.63;;;37.20;;
13483;SDS011;6814;57.786;12.080;2024-03-02T09:19:44;87.63;;;38.60;;
13483;SDS011;6814;57.786;12.080;2024-03-02T09:22:10;81.27;;;38.57;;
13483;SDS011;6814;57.786;12.080;2024-03-02T09:24:39;79.03;;;37.97;;
13483;SDS011;6814;57.786;12.080;2024-03-02T09:27:06;82.43;;;37.50;;
13483;SDS011;6814;57.786;12.080;2024-03-02T09:29:33;86.03;;;38.30;;
13483;SDS011;6814;57.786;12.080;2024-03-02T09:31:59;75.40;;;39.43;;
13483;SDS011;6814;57.786;12.080;2024-03-02T09:34:26;81.97;;;38.73;;
13483;SDS011;6814;57.786;12.080;2024-03-02T09:36:53;87.23;;;39.00;;
13483;SDS011;6814;57.786;12.080;2024-03-02T09:39:19;76.40;;;37.70;;
13483;SDS011;6814;57.786;12.080;2024-03-02T09:41:52;77.53;;;39.43;;
13483;SDS011;6814;57.786;12.080;2024-03-02T09:44:19;81.93;;;37.97;;
13483;SDS011;6814;57.786;12.080;2024-03-02T09:46:48;75.10;;;39.03;;
13483;SDS011;6814;57.786;12.080;2024-03-02T09:49:15;76.90;;;38.80;;
13483;SDS011;6814;57.786;12.080;2024-03-02T09:51:42;74.90;;;39.10;;
13483;SDS011;6814;57.786;12.080;2024-03-02T09:54:12;80.17;;;39.03;;
13483;SDS011;6814;57.786;12.080;2024-03-02T09:56:39;80.80;;;39.77;;
13483;SDS011;6814;57.786;12.080;2024-03-02T09:59:07;80.57;;;40.33;;
13483;SDS011;6814;57.786;12.080;2024-03-02T10:01:34;75.83;;;37.63;;
13483;SDS011;6814;57.786;12.080;2024-03-02T10:04:00;73.03;;;39.23;;
13483;SDS011;6814;57.786;12.080;2024-03-02T10:06:28;70.37;;;39.63;;
13483;SDS011;6814;57.786;12.080;2024-03-02T10:08:55;72.27;;;39.10;;
13483;SDS011;6814;57.786;12.080;2024-03-02T10:11:28;72.60;;;38.33;;
13483;SDS011;6814;57.786;12.080;2024-03-02T10:14:03;71.67;;;38.73;;
13483;SDS011;6814;57.786;12.080;2024-03-02T10:16:33;68.03;;;38.17;;
13483;SDS011;6814;57.786;12.080;2024-03-02T10:19:10;68.20;;;40.10;;
13483;SDS011;6814;57.786;12.080;2024-03-02T10:21:41;73.83;;;38.93;;
13483;SDS011;6814;57.786;12.080;2024-03-02T10:24:07;74.30;;;39.53;;
13483;SDS011;6814;57.786;12.080;2024-03-02T10:26:34;68.00;;;38.70;;
13483;SDS011;6814;57.786;12.080;2024-03-02T10:29:01;70.60;;;39.43;;
13483;SDS011;6814;57.786;12.080;2024-03-02T10:31:27;66.13;;;39.50;;
13483;SDS011;6814;57.786;12.080;2024-03-02T10:33:55;66.10;;;39.17;;
13483;SDS011;6814;57.786;12.080;2024-03-02T10:36:22;66.27;;;39.40;;
13483;SDS011;6814;57.786;12.080;2024-03-02T10:38:51;70.20;;;39.67;;
13483;SDS011;6814;57.786;12.080;2024-03-02T10:41:20;71.17;;;40.30;;
13483;SDS011;6814;57.786;12.080;2024-03-02T10:43:50;66.20;;;39.47;;
13483;SDS011;6814;57.786;12.080;2024-03-02T10:46:17;68.00;;;39.87;;
13483;SDS011;6814;57.786;12.080;2024-03-02T10:48:46;65.50;;;40.07;;
13483;SDS011;6814;57.786;12.080;2024-03-02T10:51:14;64.23;;;39.87;;
13483;SDS011;6814;57.786;12.080;2024-03-02T10:53:40;67.20;;;40.47;;
13483;SDS011;6814;57.786;12.080;2024-03-02T10:56:07;67.67;;;39.33;;
13483;SDS011;6814;57.786;12.080;2024-03-02T10:58:34;63.03;;;39.23;;
13483;SDS011;6814;57.786;12.080;2024-03-02T11:01:01;62.37;;;38.07;;
13483;SDS011;6814;57.786;12.080;2024-03-02T11:03:28;59.20;;;38.00;;
13483;SDS011;6814;57.786;12.080;2024-03-02T11:05:55;56.27;;;38.23;;
13483;SDS011;6814;57.786;12.080;2024-03-02T11:08:25;59.20;;;38.33;;
13483;SDS011;6814;57.786;12.080;2024-03-02T11:10:54;57.73;;;38.43;;
13483;SDS011;6814;57.786;12.080;2024-03-02T11:13:24;57.83;;;38.67;;
13483;SDS011;6814;57.786;12.080;2024-03-02T11:15:55;58.00;;;37.50;;
13483;SDS011;6814;57.786;12.080;2024-03-02T11:18:25;52.37;;;36.43;;
13483;SDS011;6814;57.786;12.080;2024-03-02T11:20:52;53.43;;;37.17;;
13483;SDS011;6814;57.786;12.080;2024-03-02T11:23:19;53.63;;;36.67;;
13483;SDS011;6814;57.786;12.080;2024-03-02T11:26:11;48.90;;;34.43;;
13483;SDS011;6814;57.786;12.080;2024-03-02T11:28:43;46.03;;;34.40;;
13483;SDS011;6814;57.786;12.080;2024-03-02T11:31:10;44.23;;;33.93;;
13483;SDS011;6814;57.786;12.080;2024-03-02T11:33:37;46.20;;;32.73;;
13483;SDS011;6814;57.786;12.080;2024-03-02T11:36:04;43.00;;;32.93;;
13483;SDS011;6814;57.786;12.080;2024-03-02T11:38:32;39.90;;;29.70;;
13483;SDS011;6814;57.786;12.080;2024-03-02T11:41:00;35.13;;;29.67;;
13483;SDS011;6814;57.786;12.080;2024-03-02T11:43:29;37.67;;;30.17;;
13483;SDS011;6814;57.786;12.080;2024-03-02T11:45:59;36.67;;;28.90;;
13483;SDS011;6814;57.786;12.080;2024-03-02T11:48:26;31.93;;;25.50;;
13483;SDS011;6814;57.786;12.080;2024-03-02T11:50:52;32.90;;;26.37;;
13483;SDS011;6814;57.786;12.080;2024-03-02T11:53:21;34.10;;;27.10;;
13483;SDS011;6814;57.786;12.080;2024-03-02T11:55:47;32.33;;;25.80;;
13483;SDS011;6814;57.786;12.080;2024-03-02T11:58:15;30.03;;;24.77;;
13483;SDS011;6814;57.786;12.080;2024-03-02T12:00:44;30.50;;;24.33;;
13483;SDS011;6814;57.786;12.080;2024-03-02T12:03:12;30.07;;;24.40;;
13483;SDS011;6814;57.786;12.080;2024-03-02T12:05:38;26.87;;;23.27;;
13483;SDS011;6814;57.786;12.080;2024-03-02T12:08:06;26.07;;;22.67;;
13483;SDS011;6814;57.786;12.080;2024-03-02T12:10:33;24.37;;;20.70;;
13483;SDS011;6814;57.786;12.080;2024-03-02T12:13:00;24.63;;;21.77;;
13483;SDS011;6814;57.786;12.080;2024-03-02T12:15:27;24.80;;;21.10;;
13483;SDS011;6814;57.786;12.080;2024-03-02T12:17:57;23.17;;;20.37;;
13483;SDS011;6814;57.786;12.080;2024-03-02T12:20:24;22.67;;;20.10;;
13483;SDS011;6814;57.786;12.080;2024-03-02T12:22:51;21.00;;;18.80;;
13483;SDS011;6814;57.786;12.080;2024-03-02T12:25:19;21.07;;;18.97;;
13483;SDS011;6814;57.786;12.080;2024-03-02T12:27:45;20.57;;;18.37;;
13483;SDS011;6814;57.786;12.080;2024-03-02T12:30:12;20.17;;;17.53;;
13483;SDS011;6814;57.786;12.080;2024-03-02T12:32:39;19.33;;;17.33;;
13483;SDS011;6814;57.786;12.080;2024-03-02T12:35:08;20.00;;;17.30;;
13483;SDS011;6814;57.786;12.080;2024-03-02T12:37:42;18.37;;;16.17;;
13483;SDS011;6814;57.786;12.080;2024-03-02T12:40:09;18.43;;;16.50;;
13483;SDS011;6814;57.786;12.080;2024-03-02T12:42:36;18.13;;;16.33;;
13483;SDS011;6814;57.786;12.080;2024-03-02T12:45:03;19.47;;;16.73;;
13483;SDS011;6814;57.786;12.080;2024-03-02T12:47:30;18.53;;;16.63;;
13483;SDS011;6814;57.786;12.080;2024-03-02T12:49:56;17.07;;;15.27;;
13483;SDS011;6814;57.786;12.080;2024-03-02T12:52:24;17.00;;;15.30;;
13483;SDS011;6814;57.786;12.080;2024-03-02T12:54:51;17.43;;;15.63;;
13483;SDS011;6814;57.786;12.080;2024-03-02T12:57:24;17.77;;;14.67;;
13483;SDS011;6814;57.786;12.080;2024-03-02T12:59:51;15.63;;;14.13;;
13483;SDS011;6814;57.786;12.080;2024-03-02T13:02:18;16.40;;;14.73;;
13483;SDS011;6814;57.786;12.080;2024-03-02T13:04:44;15.63;;;14.13;;
13483;SDS011;6814;57.786;12.080;2024-03-02T13:07:20;14.60;;;13.10;;
13483;SDS011;6814;57.786;12.080;2024-03-02T13:09:49;14.70;;;13.10;;
13483;SDS011;6814;57.786;12.080;2024-03-02T13:12:15;14.63;;;13.23;;
13483;SDS011;6814;57.786;12.080;2024-03-02T13:14:42;13.97;;;12.67;;
13483;SDS011;6814;57.786;12.080;2024-03-02T13:17:12;13.77;;;12.47;;
13483;SDS011;6814;57.786;12.080;2024-03-02T13:19:43;13.27;;;12.07;;
13483;SDS011;6814;57.786;12.080;2024-03-02T13:22:09;14.27;;;12.87;;
13483;SDS011;6814;57.786;12.080;2024-03-02T13:24:36;13.60;;;12.30;;
13483;SDS011;6814;57.786;12.080;2024-03-02T13:27:04;12.87;;;11.67;;
13483;SDS011;6814;57.786;12.080;2024-03-02T13:29:31;13.03;;;11.83;;
13483;SDS011;6814;57.786;12.080;2024-03-02T13:31:58;12.70;;;11.50;;
13483;SDS011;6814;57.786;12.080;2024-03-02T13:34:24;11.87;;;10.67;;
13483;SDS011;6814;57.786;12.080;2024-03-02T13:36:51;12.83;;;11.60;;
13483;SDS011;6814;57.786;12.080;2024-03-02T13:39:17;12.60;;;11.40;;
13483;SDS011;6814;57.786;12.080;2024-03-02T13:41:44;12.80;;;11.57;;
13483;SDS011;6814;57.786;12.080;2024-03-02T13:44:19;12.20;;;11.00;;
13483;SDS011;6814;57.786;12.080;2024-03-02T13:46:46;12.03;;;10.87;;
13483;SDS011;6814;57.786;12.080;2024-03-02T13:49:14;11.80;;;10.70;;
13483;SDS011;6814;57.786;12.080;2024-03-02T13:51:40;11.83;;;10.73;;
13483;SDS011;6814;57.786;12.080;2024-03-02T13:54:07;14.23;;;12.83;;
13483;SDS011;6814;57.786;12.080;2024-03-02T13:56:33;11.70;;;10.63;;
13483;SDS011;6814;57.786;12.080;2024-03-02T13:59:00;11.97;;;10.77;;
13483;SDS011;6814;57.786;12.080;2024-03-02T14:01:28;13.13;;;11.93;;
13483;SDS011;6814;57.786;12.080;2024-03-02T14:03:55;13.17;;;11.87;;
13483;SDS011;6814;57.786;12.080;2024-03-02T14:06:22;12.40;;;11.30;;
13483;SDS011;6814;57.786;12.080;2024-03-02T14:08:50;11.83;;;10.73;;
13483;SDS011;6814;57.786;12.080;2024-03-02T14:11:16;11.50;;;10.50;;
13483;SDS011;6814;57.786;12.080;2024-03-02T14:13:43;11.53;;;10.40;;
13483;SDS011;6814;57.786;12.080;2024-03-02T14:16:14;12.50;;;11.30;;
13483;SDS011;6814;57.786;12.080;2024-03-02T14:18:42;10.80;;;9.90;;
13483;SDS011;6814;57.786;12.080;2024-03-02T14:21:10;11.30;;;10.20;;
13483;SDS011;6814;57.786;12.080;2024-03-02T14:23:36;11.20;;;10.20;;
13483;SDS011;6814;57.786;12.080;2024-03-02T14:26:03;11.70;;;10.63;;